createdAt,value
2019-05-10T06:00:27.519Z,0.00
2019-05-10T06:01:29.514Z,0.00
2019-05-10T06:02:27.458Z,0.00
2019-05-10T06:03:29.331Z,0.00
2019-05-10T06:04:27.457Z,5.62
2019-05-10T06:05:34.166Z,0.00
2019-05-10T06:06:28.435Z,0.00
2019-05-10T06:07:31.135Z,0.00
2019-05-10T06:08:30.053Z,0.00
2019-05-10T06:09:31.913Z,0.00
2019-05-10T06:10:28.335Z,0.00
2019-05-10T06:11:29.818Z,0.00
2019-05-10T06:12:28.300Z,0.00
2019-05-10T06:13:30.228Z,0.00
2019-05-10T06:14:27.306Z,0.00
2019-05-10T06:15:29.051Z,0.00
2019-05-10T06:16:27.342Z,0.00
2019-05-10T06:17:29.589Z,0.00
2019-05-10T06:18:27.301Z,0.00
2019-05-10T06:19:29.648Z,0.00
2019-05-10T06:20:27.319Z,0.00
2019-05-10T06:21:27.285Z,5.62
2019-05-10T06:22:27.278Z,5.62
2019-05-10T06:23:29.166Z,5.62
2019-05-10T06:24:28.230Z,5.62
2019-05-10T06:25:39.635Z,5.62
2019-05-10T06:26:28.826Z,5.62
2019-05-10T06:27:27.175Z,5.62
2019-05-10T06:28:56.466Z,5.62
2019-05-10T06:29:28.129Z,5.62
2019-05-10T06:30:27.125Z,5.62
2019-05-10T06:31:27.100Z,5.62
2019-05-10T06:32:27.962Z,5.62
2019-05-10T06:33:27.075Z,5.62
2019-05-10T06:34:32.050Z,5.62
2019-05-10T06:35:28.104Z,5.62
2019-05-10T06:36:27.049Z,5.62
2019-05-10T06:37:27.035Z,5.62
2019-05-10T06:38:27.022Z,5.62
2019-05-10T06:39:27.072Z,5.62
2019-05-10T06:40:35.588Z,5.62
2019-05-10T06:41:27.997Z,5.62
2019-05-10T06:42:28.775Z,5.62
2019-05-10T06:43:27.968Z,5.62
2019-05-10T06:44:31.239Z,5.62
2019-05-10T06:45:27.948Z,5.62
2019-05-10T06:46:29.399Z,5.62
2019-05-10T06:47:26.933Z,5.62
2019-05-10T06:48:31.430Z,5.62
2019-05-10T06:49:27.923Z,5.62
2019-05-10T06:50:30.058Z,5.62
2019-05-10T06:51:26.883Z,5.62
2019-05-10T06:52:28.018Z,5.62
2019-05-10T06:53:26.866Z,5.62
2019-05-10T06:54:26.860Z,5.62
2019-05-10T06:55:26.899Z,5.62
2019-05-10T06:56:26.845Z,5.62
2019-05-10T06:57:26.821Z,5.62
2019-05-10T06:58:30.510Z,5.62
2019-05-10T06:59:27.826Z,5.62
2019-05-10T07:00:26.847Z,5.62
2019-05-10T07:01:26.784Z,11.25
2019-05-10T07:02:32.215Z,11.25
2019-05-10T07:03:27.754Z,11.25
2019-05-10T07:04:26.771Z,11.25
2019-05-10T07:05:26.770Z,11.25
2019-05-10T07:06:26.726Z,11.25
2019-05-10T07:07:43.135Z,11.25
2019-05-10T07:08:27.703Z,11.25
2019-05-10T07:09:26.706Z,11.25
2019-05-10T07:10:26.710Z,11.25
2019-05-10T07:11:26.670Z,11.25
2019-05-10T07:12:30.016Z,11.25
2019-05-10T07:13:26.662Z,11.25
2019-05-10T07:14:27.361Z,5.62
2019-05-10T07:15:26.682Z,5.62
2019-05-10T07:16:26.645Z,5.62
2019-05-10T07:17:26.640Z,5.62
2019-05-10T07:18:26.626Z,5.62
2019-05-10T07:19:28.694Z,5.62
2019-05-10T07:20:29.480Z,11.25
2019-05-10T07:21:26.590Z,11.25
2019-05-10T07:22:28.859Z,11.25
2019-05-10T07:23:29.936Z,11.25
2019-05-10T07:24:27.071Z,11.25
2019-05-10T07:25:26.521Z,11.25
2019-05-10T07:26:26.978Z,11.25
2019-05-10T07:27:26.557Z,11.25
2019-05-10T07:28:26.496Z,11.25
2019-05-10T07:29:29.963Z,11.25
2019-05-10T07:30:26.526Z,11.25
2019-05-10T07:31:26.515Z,11.25
2019-05-10T07:32:26.455Z,11.25
2019-05-10T07:33:26.440Z,11.25
2019-05-10T07:34:26.429Z,11.25
2019-05-10T07:35:31.034Z,11.25
2019-05-10T07:36:30.483Z,11.25
2019-05-10T07:37:26.451Z,11.25
2019-05-10T07:38:30.647Z,11.25
2019-05-10T07:39:27.373Z,11.25
2019-05-10T07:40:26.406Z,11.25
2019-05-10T07:41:28.964Z,11.25
2019-05-10T07:42:26.355Z,11.25
2019-05-10T07:43:29.008Z,11.25
2019-05-10T07:44:26.329Z,11.25
2019-05-10T07:45:27.368Z,11.25
2019-05-10T07:46:26.374Z,11.25
2019-05-10T07:47:30.398Z,11.25
2019-05-10T07:48:27.283Z,11.25
2019-05-10T07:49:30.204Z,16.88
2019-05-10T07:50:27.253Z,16.88
2019-05-10T07:51:28.716Z,16.88
2019-05-10T07:52:26.247Z,16.88
2019-05-10T07:53:26.255Z,16.88
2019-05-10T07:54:26.294Z,16.88
2019-05-10T07:55:29.517Z,16.88
2019-05-10T07:56:26.244Z,22.50
2019-05-10T07:57:27.111Z,22.50
2019-05-10T07:58:26.218Z,22.50
2019-05-10T07:59:30.447Z,22.50
2019-05-10T08:00:27.188Z,28.12
2019-05-10T08:01:32.335Z,28.12
2019-05-10T08:02:27.156Z,28.12
2019-05-10T08:03:26.131Z,28.12
2019-05-10T08:04:31.863Z,28.12
2019-05-10T08:05:29.393Z,33.75
2019-05-10T08:06:26.085Z,28.12
2019-05-10T08:07:26.077Z,28.12
2019-05-10T08:08:26.161Z,28.12
2019-05-10T08:09:26.058Z,28.12
2019-05-10T08:10:28.754Z,28.12
2019-05-10T08:11:28.422Z,28.12
2019-05-10T08:12:28.661Z,28.12
2019-05-10T08:13:28.217Z,28.12
2019-05-10T08:14:26.168Z,28.12
2019-05-10T08:15:32.645Z,28.12
2019-05-10T08:16:28.923Z,28.12
2019-05-10T08:17:25.970Z,28.12
2019-05-10T08:18:25.986Z,22.50
2019-05-10T08:19:25.950Z,22.50
2019-05-10T08:20:41.437Z,16.88
2019-05-10T08:21:26.989Z,16.88
2019-05-10T08:22:26.048Z,16.88
2019-05-10T08:23:28.001Z,16.88
2019-05-10T08:24:25.908Z,16.88
2019-05-10T08:25:29.020Z,16.88
2019-05-10T08:26:26.918Z,22.50
2019-05-10T08:27:25.891Z,22.50
2019-05-10T08:28:27.932Z,22.50
2019-05-10T08:29:26.877Z,28.12
2019-05-10T08:30:29.129Z,28.12
2019-05-10T08:31:26.523Z,33.75
2019-05-10T08:32:29.861Z,33.75
2019-05-10T08:33:26.987Z,33.75
2019-05-10T08:34:28.844Z,33.75
2019-05-10T08:35:26.795Z,28.12
2019-05-10T08:36:25.807Z,28.12
2019-05-10T08:37:31.023Z,28.12
2019-05-10T08:38:26.827Z,28.12
2019-05-10T08:39:25.738Z,28.12
2019-05-10T08:40:33.624Z,33.75
2019-05-10T08:41:26.715Z,33.75
2019-05-10T08:42:40.792Z,39.38
2019-05-10T08:43:30.872Z,39.38
2019-05-10T08:44:26.705Z,39.38
2019-05-10T08:45:25.674Z,39.38
2019-05-10T08:46:37.383Z,39.38
2019-05-10T08:47:27.749Z,45.00
2019-05-10T08:48:27.612Z,50.62
2019-05-10T08:49:32.600Z,56.25
2019-05-10T08:50:44.224Z,56.25
2019-05-10T08:51:26.645Z,56.25
2019-05-10T08:52:30.917Z,50.62
2019-05-10T08:53:26.624Z,56.25
2019-05-10T08:54:26.436Z,61.88
2019-05-10T08:55:25.564Z,56.25
2019-05-10T08:56:25.563Z,56.25
2019-05-10T08:57:25.545Z,56.25
2019-05-10T08:58:31.233Z,56.25
2019-05-10T08:59:26.866Z,56.25
2019-05-10T09:00:41.405Z,50.62
2019-05-10T09:01:30.087Z,50.62
2019-05-10T09:02:29.348Z,50.62
2019-05-10T09:03:25.483Z,45.00
2019-05-10T09:04:25.473Z,45.00
2019-05-10T09:05:29.014Z,56.25
2019-05-10T09:06:26.481Z,61.88
2019-05-10T09:07:29.462Z,61.88
2019-05-10T09:08:28.571Z,61.88
2019-05-10T09:09:26.417Z,61.88
2019-05-10T09:10:25.413Z,61.88
2019-05-10T09:11:25.420Z,67.50
2019-05-10T09:12:25.389Z,56.25
2019-05-10T09:13:28.844Z,56.25
2019-05-10T09:14:26.367Z,61.88
2019-05-10T09:15:25.409Z,67.50
2019-05-10T09:16:28.993Z,56.25
2019-05-10T09:17:28.350Z,45.00
2019-05-10T09:18:25.321Z,45.00
2019-05-10T09:19:36.173Z,56.25
2019-05-10T09:20:26.729Z,61.88
2019-05-10T09:21:25.311Z,50.62
2019-05-10T09:22:32.542Z,56.25
2019-05-10T09:23:26.319Z,61.88
2019-05-10T09:24:25.255Z,67.50
2019-05-10T09:25:29.545Z,50.62
2019-05-10T09:26:26.283Z,50.62
2019-05-10T09:27:29.165Z,39.38
2019-05-10T09:28:25.314Z,28.12
2019-05-10T09:29:27.429Z,22.50
2019-05-10T09:30:26.203Z,22.50
2019-05-10T09:31:25.795Z,22.50
2019-05-10T09:32:29.070Z,22.50
2019-05-10T09:33:26.158Z,22.50
2019-05-10T09:34:27.061Z,28.12
2019-05-10T09:35:25.142Z,28.12
2019-05-10T09:36:30.966Z,28.12
2019-05-10T09:37:26.173Z,28.12
2019-05-10T09:38:28.657Z,28.12
2019-05-10T09:39:26.231Z,28.12
2019-05-10T09:40:25.087Z,28.12
2019-05-10T09:41:27.683Z,28.12
2019-05-10T09:42:33.090Z,28.12
2019-05-10T09:43:26.109Z,33.75
2019-05-10T09:44:25.042Z,33.75
2019-05-10T09:45:25.029Z,33.75
2019-05-10T09:46:25.178Z,28.12
2019-05-10T09:47:25.055Z,28.12
2019-05-10T09:48:25.028Z,28.12
2019-05-10T09:49:24.994Z,28.12
2019-05-10T09:50:30.562Z,28.12
2019-05-10T09:51:30.066Z,28.12
2019-05-10T09:52:24.994Z,28.12
2019-05-10T09:53:27.444Z,28.12
2019-05-10T09:54:31.763Z,33.75
2019-05-10T09:55:28.012Z,33.75
2019-05-10T09:56:27.451Z,33.75
2019-05-10T09:57:24.965Z,33.75
2019-05-10T09:58:24.899Z,33.75
2019-05-10T09:59:24.883Z,39.38
2019-05-10T10:00:27.050Z,50.62
2019-05-10T10:01:28.054Z,50.62
2019-05-10T10:02:31.083Z,56.25
2019-05-10T10:03:29.642Z,56.25
2019-05-10T10:04:24.830Z,56.25
2019-05-10T10:05:24.861Z,78.75
2019-05-10T10:06:24.809Z,84.38
2019-05-10T10:07:31.758Z,84.38
2019-05-10T10:08:28.126Z,84.38
2019-05-10T10:09:32.925Z,84.38
2019-05-10T10:10:31.709Z,73.12
2019-05-10T10:11:27.862Z,61.88
2019-05-10T10:12:24.768Z,56.25
2019-05-10T10:13:39.056Z,50.62
2019-05-10T10:14:28.312Z,50.62
2019-05-10T10:15:32.108Z,45.00
2019-05-10T10:16:28.061Z,50.62
2019-05-10T10:17:24.777Z,50.62
2019-05-10T10:18:25.541Z,56.25
2019-05-10T10:19:24.844Z,61.88
2019-05-10T10:20:24.663Z,61.88
2019-05-10T10:21:30.780Z,73.12
2019-05-10T10:22:27.731Z,73.12
2019-05-10T10:23:29.919Z,73.12
2019-05-10T10:24:28.338Z,73.12
2019-05-10T10:25:27.796Z,73.12
2019-05-10T10:26:26.882Z,73.12
2019-05-10T10:27:28.016Z,67.50
2019-05-10T10:28:25.612Z,67.50
2019-05-10T10:29:28.692Z,73.12
2019-05-10T10:30:27.583Z,78.75
2019-05-10T10:31:32.563Z,73.12
2019-05-10T10:32:31.630Z,84.38
2019-05-10T10:33:28.832Z,90.00
2019-05-10T10:34:24.508Z,95.62
2019-05-10T10:35:27.730Z,73.12
2019-05-10T10:36:27.445Z,73.12
2019-05-10T10:37:29.028Z,84.38
2019-05-10T10:38:28.792Z,90.00
2019-05-10T10:39:27.614Z,95.62
2019-05-10T10:40:24.487Z,78.75
2019-05-10T10:41:27.369Z,67.50
2019-05-10T10:42:25.420Z,84.38
2019-05-10T10:43:24.411Z,61.88
2019-05-10T10:44:26.925Z,84.38
2019-05-10T10:45:24.389Z,56.25
2019-05-10T10:46:24.379Z,61.88
2019-05-10T10:47:30.415Z,56.25
2019-05-10T10:48:25.357Z,56.25
2019-05-10T10:49:28.024Z,67.50
2019-05-10T10:50:27.498Z,73.12
2019-05-10T10:51:26.621Z,112.50
2019-05-10T10:52:27.689Z,151.88
2019-05-10T10:53:24.344Z,135.00
2019-05-10T10:54:28.651Z,601.88
2019-05-10T10:55:30.566Z,292.50
2019-05-10T10:56:27.475Z,123.75
2019-05-10T10:57:24.305Z,101.25
2019-05-10T10:58:24.257Z,106.88
2019-05-10T10:59:24.245Z,90.00
2019-05-10T11:00:24.239Z,67.50
2019-05-10T11:01:25.622Z,56.25
2019-05-10T11:02:32.837Z,56.25
2019-05-10T11:03:30.399Z,84.38
2019-05-10T11:04:25.190Z,61.88
2019-05-10T11:05:24.179Z,101.25
2019-05-10T11:06:24.201Z,135.00
2019-05-10T11:07:24.176Z,61.88
2019-05-10T11:08:24.166Z,50.62
2019-05-10T11:09:24.161Z,50.62
2019-05-10T11:10:24.126Z,50.62
2019-05-10T11:11:24.147Z,73.12
2019-05-10T11:12:24.226Z,45.00
2019-05-10T11:13:41.628Z,45.00
2019-05-10T11:14:25.091Z,45.00
2019-05-10T11:15:28.249Z,45.00
2019-05-10T11:16:25.068Z,45.00
2019-05-10T11:17:24.058Z,45.00
2019-05-10T11:18:24.150Z,45.00
2019-05-10T11:19:24.037Z,45.00
2019-05-10T11:20:24.034Z,45.00
2019-05-10T11:21:28.830Z,45.00
2019-05-10T11:22:27.320Z,50.62
2019-05-10T11:23:33.088Z,61.88
2019-05-10T11:24:24.977Z,67.50
2019-05-10T11:25:24.038Z,67.50
2019-05-10T11:26:26.784Z,67.50
2019-05-10T11:27:24.956Z,67.50
2019-05-10T11:28:23.936Z,73.12
2019-05-10T11:29:27.853Z,67.50
2019-05-10T11:30:23.955Z,67.50
2019-05-10T11:31:23.931Z,67.50
2019-05-10T11:32:23.929Z,67.50
2019-05-10T11:33:29.810Z,67.50
2019-05-10T11:34:29.310Z,67.50
2019-05-10T11:35:30.477Z,67.50
2019-05-10T11:36:24.844Z,67.50
2019-05-10T11:37:31.058Z,67.50
2019-05-10T11:38:24.823Z,67.50
2019-05-10T11:39:26.656Z,67.50
2019-05-10T11:40:30.728Z,67.50
2019-05-10T11:41:24.827Z,73.12
2019-05-10T11:42:23.807Z,67.50
2019-05-10T11:43:27.046Z,73.12
2019-05-10T11:44:25.871Z,67.50
2019-05-10T11:45:26.076Z,61.88
2019-05-10T11:46:27.814Z,67.50
2019-05-10T11:47:27.163Z,67.50
2019-05-10T11:48:28.265Z,67.50
2019-05-10T11:49:24.722Z,67.50
2019-05-10T11:50:30.952Z,73.12
2019-05-10T11:51:24.688Z,61.88
2019-05-10T11:52:23.711Z,67.50
2019-05-10T11:53:24.125Z,56.25
2019-05-10T11:54:24.201Z,73.12
2019-05-10T11:55:23.672Z,67.50
2019-05-10T11:57:24.663Z,61.88
2019-05-10T11:58:23.974Z,73.12
2019-05-10T11:59:27.281Z,73.12
2019-05-10T12:00:31.300Z,78.75
2019-05-10T12:01:24.589Z,78.75
2019-05-10T12:03:24.601Z,67.50
2019-05-10T12:05:26.696Z,67.50
2019-05-10T12:06:23.558Z,61.88
2019-05-10T12:07:34.017Z,73.12
2019-05-10T12:08:24.555Z,61.88
2019-05-10T12:09:24.541Z,61.88
2019-05-10T12:10:25.593Z,45.00
2019-05-10T12:11:32.908Z,56.25
2019-05-10T12:12:45.029Z,45.00
2019-05-10T12:13:25.210Z,45.00
2019-05-10T12:14:23.500Z,56.25
2019-05-10T12:16:24.508Z,56.25
2019-05-10T12:17:23.945Z,73.12
2019-05-10T12:18:26.963Z,73.12
2019-05-10T12:19:23.424Z,56.25
2019-05-10T12:21:24.392Z,67.50
2019-05-10T12:22:32.092Z,78.75
2019-05-10T12:23:29.995Z,56.25
2019-05-10T12:24:38.784Z,78.75
2019-05-10T12:25:41.933Z,61.88
2019-05-10T12:26:05.556Z,61.88
2019-05-10T12:26:05.893Z,67.50
2019-05-10T12:26:30.550Z,73.12
2019-05-10T12:26:30.935Z,78.75
2019-05-10T12:26:59.181Z,56.25
2019-05-10T12:27:29.234Z,61.88
2019-05-10T12:28:28.754Z,45.00
2019-05-10T12:29:24.288Z,56.25
2019-05-10T12:30:23.594Z,50.62
2019-05-10T12:31:24.249Z,67.50
2019-05-10T12:32:27.013Z,67.50
2019-05-10T12:33:27.381Z,56.25
2019-05-10T12:34:23.281Z,50.62
2019-05-10T12:35:26.481Z,56.25
2019-05-10T12:36:27.441Z,56.25
2019-05-10T12:37:23.213Z,56.25
2019-05-10T12:38:28.775Z,56.25
2019-05-10T12:39:24.269Z,50.62
2019-05-10T12:40:24.122Z,56.25
2019-05-10T12:41:23.498Z,50.62
2019-05-10T12:42:23.222Z,50.62
2019-05-10T12:43:25.700Z,50.62
2019-05-10T12:44:23.750Z,50.62
2019-05-10T12:45:23.523Z,50.62
2019-05-10T12:46:23.169Z,50.62
2019-05-10T12:47:23.131Z,45.00
2019-05-10T12:48:23.535Z,50.62
2019-05-10T12:49:23.077Z,56.25
2019-05-10T12:50:23.126Z,78.75
2019-05-10T12:51:23.075Z,101.25
2019-05-10T12:52:28.330Z,78.75
2019-05-10T12:53:24.111Z,78.75
2019-05-10T12:54:23.955Z,73.12
2019-05-10T12:55:23.025Z,73.12
2019-05-10T12:56:23.026Z,73.12
2019-05-10T12:57:22.990Z,67.50
2019-05-10T12:58:23.007Z,67.50
2019-05-10T12:59:23.013Z,67.50
2019-05-10T13:00:22.948Z,67.50
2019-05-10T13:01:25.759Z,123.75
2019-05-10T13:02:23.965Z,84.38
2019-05-10T13:03:25.274Z,61.88
2019-05-10T13:04:39.420Z,39.38
2019-05-10T13:05:30.865Z,61.88
2019-05-10T13:06:23.888Z,61.88
2019-05-10T13:07:22.900Z,56.25
2019-05-10T13:08:22.906Z,118.12
2019-05-10T13:09:36.535Z,61.88
2019-05-10T13:10:23.894Z,56.25
2019-05-10T13:11:25.306Z,56.25
2019-05-10T13:12:22.957Z,140.62
2019-05-10T13:13:27.009Z,67.50
2019-05-10T13:14:23.824Z,50.62
2019-05-10T13:15:24.790Z,50.62
2019-05-10T13:16:23.787Z,50.62
2019-05-10T13:17:22.796Z,50.62
2019-05-10T13:18:34.405Z,50.62
2019-05-10T13:19:23.744Z,225.00
2019-05-10T13:20:22.791Z,101.25
2019-05-10T13:21:23.171Z,39.38
2019-05-10T13:22:22.749Z,39.38
2019-05-10T13:23:22.702Z,39.38
2019-05-10T13:24:22.695Z,39.38
2019-05-10T13:25:22.707Z,39.38
2019-05-10T13:26:22.672Z,45.00
2019-05-10T13:27:22.686Z,39.38
2019-05-10T13:28:22.690Z,45.00
2019-05-10T13:29:22.663Z,45.00
2019-05-10T13:30:27.508Z,45.00
2019-05-10T13:31:23.659Z,39.38
2019-05-10T13:32:22.670Z,39.38
2019-05-10T13:33:28.987Z,39.38
2019-05-10T13:34:24.456Z,39.38
2019-05-10T13:35:22.575Z,45.00
2019-05-10T13:36:22.570Z,61.88
2019-05-10T13:37:24.822Z,61.88
2019-05-10T13:38:22.935Z,95.62
2019-05-10T13:39:25.527Z,50.62
2019-05-10T13:40:22.550Z,50.62
2019-05-10T13:41:24.426Z,45.00
2019-05-10T13:42:22.513Z,50.62
2019-05-10T13:43:26.639Z,39.38
2019-05-10T13:44:23.485Z,39.38
2019-05-10T13:45:22.480Z,39.38
2019-05-10T13:46:23.765Z,50.62
2019-05-10T13:47:22.460Z,50.62
2019-05-10T13:48:26.115Z,39.38
2019-05-10T13:49:22.454Z,45.00
2019-05-10T13:50:22.422Z,39.38
2019-05-10T13:51:22.437Z,39.38
2019-05-10T13:52:22.426Z,39.38
2019-05-10T13:53:23.234Z,39.38
2019-05-10T13:54:22.373Z,39.38
2019-05-10T13:55:22.405Z,39.38
2019-05-10T13:56:22.369Z,39.38
2019-05-10T13:57:22.379Z,39.38
2019-05-10T13:58:22.428Z,39.38
2019-05-10T13:59:22.343Z,39.38
2019-05-10T14:00:22.307Z,39.38
2019-05-10T14:01:22.297Z,39.38
2019-05-10T14:02:31.956Z,39.38
2019-05-10T14:03:23.293Z,33.75
2019-05-10T14:04:23.269Z,33.75
2019-05-10T14:05:22.294Z,33.75
2019-05-10T14:06:22.272Z,39.38
2019-05-10T14:07:22.262Z,33.75
2019-05-10T14:08:22.318Z,33.75
2019-05-10T14:09:22.266Z,33.75
2019-05-10T14:10:23.414Z,33.75
2019-05-10T14:11:22.217Z,33.75
2019-05-10T14:12:25.591Z,33.75
2019-05-10T14:13:22.244Z,33.75
2019-05-10T14:14:26.428Z,33.75
2019-05-10T14:15:22.157Z,33.75
2019-05-10T14:16:22.661Z,33.75
2019-05-10T14:17:22.132Z,33.75
2019-05-10T14:18:22.272Z,33.75
2019-05-10T14:19:23.351Z,28.12
2019-05-10T14:20:27.500Z,28.12
2019-05-10T14:21:23.096Z,28.12
2019-05-10T14:22:22.143Z,28.12
2019-05-10T14:23:22.088Z,33.75
2019-05-10T14:24:22.097Z,33.75
2019-05-10T14:25:22.073Z,33.75
2019-05-10T14:26:22.031Z,33.75
2019-05-10T14:27:22.616Z,33.75
2019-05-10T14:28:22.013Z,33.75
2019-05-10T14:29:33.212Z,33.75
2019-05-10T14:30:23.178Z,33.75
2019-05-10T14:31:23.779Z,33.75
2019-05-10T14:32:21.980Z,39.38
2019-05-10T14:33:21.962Z,39.38
2019-05-10T14:34:21.964Z,33.75
2019-05-10T14:35:22.844Z,33.75
2019-05-10T14:36:21.929Z,39.38
2019-05-10T14:37:21.923Z,39.38
2019-05-10T14:38:22.974Z,45.00
2019-05-10T14:39:21.890Z,45.00
2019-05-10T14:40:27.642Z,61.88
2019-05-10T14:41:22.872Z,61.88
2019-05-10T14:42:28.501Z,45.00
2019-05-10T14:43:22.875Z,39.38
2019-05-10T14:44:21.848Z,39.38
2019-05-10T14:45:21.869Z,39.38
2019-05-10T14:46:21.840Z,56.25
2019-05-10T14:47:21.832Z,45.00
2019-05-10T14:48:27.748Z,56.25
2019-05-10T14:49:22.855Z,33.75
2019-05-10T14:50:26.191Z,33.75
2019-05-10T14:51:37.628Z,28.12
2019-05-10T14:52:23.061Z,28.12
2019-05-10T14:53:25.744Z,28.12
2019-05-10T14:54:22.756Z,28.12
2019-05-10T14:55:21.725Z,28.12
2019-05-10T14:56:21.718Z,28.12
2019-05-10T14:57:23.292Z,28.12
2019-05-10T14:58:21.687Z,28.12
2019-05-10T14:59:21.700Z,28.12
2019-05-10T15:00:21.762Z,28.12
2019-05-10T15:01:21.657Z,28.12
2019-05-10T15:02:22.639Z,28.12
2019-05-10T15:03:21.675Z,33.75
2019-05-10T15:04:43.755Z,50.62
2019-05-10T15:05:22.614Z,50.62
2019-05-10T15:06:21.697Z,50.62
2019-05-10T15:07:21.626Z,39.38
2019-05-10T15:08:21.632Z,33.75
2019-05-10T15:09:24.169Z,33.75
2019-05-10T15:10:21.569Z,28.12
2019-05-10T15:11:26.451Z,33.75
2019-05-10T15:12:22.893Z,28.12
2019-05-10T15:13:26.092Z,28.12
2019-05-10T15:14:22.639Z,28.12
2019-05-10T15:15:21.508Z,33.75
2019-05-10T15:16:27.256Z,50.62
2019-05-10T15:17:22.521Z,45.00
2019-05-10T15:18:21.858Z,45.00
2019-05-10T15:19:26.298Z,50.62
2019-05-10T15:20:23.025Z,50.62
2019-05-10T15:21:21.444Z,33.75
2019-05-10T15:22:23.175Z,33.75
2019-05-10T15:23:21.432Z,39.38
2019-05-10T15:24:21.469Z,33.75
2019-05-10T15:25:21.414Z,28.12
2019-05-10T15:26:21.453Z,28.12
2019-05-10T15:27:22.284Z,28.12
2019-05-10T15:28:21.399Z,28.12
2019-05-10T15:29:24.682Z,28.12
2019-05-10T15:30:21.345Z,28.12
2019-05-10T15:31:23.610Z,28.12
2019-05-10T15:32:22.359Z,28.12
2019-05-10T15:33:21.316Z,22.50
2019-05-10T15:34:21.338Z,22.50
2019-05-10T15:35:21.328Z,22.50
2019-05-10T15:36:23.533Z,22.50
2019-05-10T15:37:22.274Z,22.50
2019-05-10T15:38:21.356Z,22.50
2019-05-10T15:39:22.888Z,22.50
2019-05-10T15:40:22.233Z,28.12
2019-05-10T15:41:22.399Z,28.12
2019-05-10T15:42:22.026Z,28.12
2019-05-10T15:43:24.272Z,22.50
2019-05-10T15:44:30.145Z,28.12
2019-05-10T15:45:22.215Z,28.12
2019-05-10T15:46:23.401Z,28.12
2019-05-10T15:47:22.453Z,28.12
2019-05-10T15:48:21.177Z,28.12
2019-05-10T15:49:24.422Z,28.12
2019-05-10T15:50:21.128Z,28.12
2019-05-10T15:51:35.245Z,22.50
2019-05-10T15:52:23.511Z,22.50
2019-05-10T15:53:25.724Z,22.50
2019-05-10T15:54:21.152Z,22.50
2019-05-10T15:55:28.840Z,22.50
2019-05-10T15:56:22.081Z,22.50
2019-05-10T15:57:22.027Z,22.50
2019-05-10T15:58:21.077Z,28.12
2019-05-10T15:59:21.418Z,28.12
2019-05-10T16:00:25.085Z,28.12
2019-05-10T16:01:27.046Z,28.12
2019-05-10T16:02:22.049Z,28.12
2019-05-10T16:03:20.991Z,28.12
2019-05-10T16:04:21.032Z,28.12
2019-05-10T16:05:25.816Z,39.38
2019-05-10T16:06:22.000Z,28.12
2019-05-10T16:07:20.992Z,39.38
2019-05-10T16:08:23.943Z,28.12
2019-05-10T16:09:21.980Z,22.50
2019-05-10T16:10:20.933Z,22.50
2019-05-10T16:11:20.928Z,22.50
2019-05-10T16:12:20.894Z,22.50
2019-05-10T16:13:24.660Z,22.50
2019-05-10T16:14:20.892Z,22.50
2019-05-10T16:15:21.333Z,22.50
2019-05-10T16:16:20.865Z,22.50
2019-05-10T16:17:23.948Z,22.50
2019-05-10T16:18:20.934Z,22.50
2019-05-10T16:19:20.837Z,22.50
2019-05-10T16:20:20.875Z,22.50
2019-05-10T16:21:20.804Z,22.50
2019-05-10T16:22:25.157Z,22.50
2019-05-10T16:23:21.792Z,28.12
2019-05-10T16:24:26.477Z,22.50
2019-05-10T16:25:21.785Z,22.50
2019-05-10T16:26:22.880Z,22.50
2019-05-10T16:27:20.996Z,22.50
2019-05-10T16:28:22.870Z,22.50
2019-05-10T16:29:20.716Z,22.50
2019-05-10T16:30:20.850Z,22.50
2019-05-10T16:31:20.702Z,39.38
2019-05-10T16:32:20.723Z,50.62
2019-05-10T16:33:20.772Z,50.62
2019-05-10T16:34:20.707Z,50.62
2019-05-10T16:35:22.151Z,50.62
2019-05-10T16:36:23.026Z,50.62
2019-05-10T16:37:21.636Z,56.25
2019-05-10T16:38:20.642Z,56.25
2019-05-10T16:39:20.618Z,56.25
2019-05-10T16:40:20.604Z,61.88
2019-05-10T16:41:20.686Z,61.88
2019-05-10T16:42:21.593Z,56.25
2019-05-10T16:43:24.653Z,50.62
2019-05-10T16:44:21.224Z,45.00
2019-05-10T16:45:21.225Z,61.88
2019-05-10T16:46:20.540Z,61.88
2019-05-10T16:47:20.569Z,67.50
2019-05-10T16:48:20.530Z,67.50
2019-05-10T16:49:20.558Z,61.88
2019-05-10T16:50:20.705Z,50.62
2019-05-10T16:51:20.487Z,50.62
2019-05-10T16:52:26.150Z,50.62
2019-05-10T16:53:21.457Z,67.50
2019-05-10T16:54:25.356Z,67.50
2019-05-10T16:55:21.450Z,56.25
2019-05-10T16:56:21.290Z,50.62
2019-05-10T16:57:20.446Z,50.62
2019-05-10T16:58:22.377Z,45.00
2019-05-10T16:59:24.411Z,39.38
2019-05-10T17:00:21.401Z,28.12
2019-05-10T17:01:24.999Z,45.00
2019-05-10T17:02:21.360Z,33.75
2019-05-10T17:03:20.698Z,50.62
2019-05-10T17:04:20.765Z,50.62
2019-05-10T17:05:20.331Z,61.88
2019-05-10T17:06:20.321Z,67.50
2019-05-10T17:07:20.635Z,67.50
2019-05-10T17:08:20.424Z,67.50
2019-05-10T17:09:20.303Z,61.88
2019-05-10T17:10:20.285Z,56.25
2019-05-10T17:11:20.274Z,45.00
2019-05-10T17:12:22.100Z,33.75
2019-05-10T17:13:21.761Z,45.00
2019-05-10T17:14:20.240Z,39.38
2019-05-10T17:15:20.280Z,50.62
2019-05-10T17:16:20.216Z,56.25
2019-05-10T17:17:20.232Z,45.00
2019-05-10T17:18:23.956Z,56.25
2019-05-10T17:19:20.205Z,73.12
2019-05-10T17:20:20.209Z,39.38
2019-05-10T17:21:20.183Z,22.50
2019-05-10T17:22:20.156Z,22.50
2019-05-10T17:23:20.154Z,28.12
2019-05-10T17:24:23.808Z,33.75
2019-05-10T17:25:22.671Z,39.38
2019-05-10T17:26:20.109Z,50.62
2019-05-10T17:27:20.099Z,73.12
2019-05-10T17:28:20.088Z,84.38
2019-05-10T17:29:20.082Z,84.38
2019-05-10T17:30:21.812Z,78.75
2019-05-10T17:31:21.081Z,78.75
2019-05-10T17:32:24.840Z,78.75
2019-05-10T17:33:21.037Z,78.75
2019-05-10T17:34:27.526Z,78.75
2019-05-10T17:35:21.033Z,73.12
2019-05-10T17:36:21.446Z,73.12
2019-05-10T17:37:20.004Z,45.00
2019-05-10T17:38:19.988Z,28.12
2019-05-10T17:39:20.002Z,45.00
2019-05-10T17:40:20.062Z,56.25
2019-05-10T17:41:24.714Z,50.62
2019-05-10T17:42:20.943Z,50.62
2019-05-10T17:43:22.768Z,56.25
2019-05-10T17:44:23.268Z,61.88
2019-05-10T17:45:20.728Z,61.88
2019-05-10T17:46:20.855Z,61.88
2019-05-10T17:47:19.907Z,61.88
2019-05-10T17:48:19.883Z,61.88
2019-05-10T17:49:19.876Z,61.88
2019-05-10T17:50:19.921Z,50.62
2019-05-10T17:51:19.849Z,33.75
2019-05-10T17:52:19.847Z,39.38
2019-05-10T17:53:19.872Z,50.62
2019-05-10T17:54:19.827Z,45.00
2019-05-10T17:55:19.843Z,45.00
2019-05-10T17:56:19.797Z,39.38
2019-05-10T17:57:19.792Z,33.75
2019-05-10T17:58:19.775Z,39.38
2019-05-10T17:59:19.794Z,33.75
2019-05-10T18:00:19.761Z,33.75
2019-05-10T18:01:19.776Z,33.75
2019-05-10T18:02:19.730Z,33.75
2019-05-10T18:03:19.784Z,28.12
2019-05-10T18:04:19.714Z,28.12
2019-05-10T18:05:19.716Z,22.50
2019-05-10T18:06:23.917Z,22.50
2019-05-10T18:07:19.686Z,22.50
2019-05-10T18:08:19.706Z,11.25
2019-05-10T18:09:19.681Z,11.25
2019-05-10T18:10:19.652Z,11.25
2019-05-10T18:11:19.671Z,11.25
2019-05-10T18:12:20.423Z,5.62
2019-05-10T18:13:19.627Z,5.62
2019-05-10T18:14:19.852Z,5.62
2019-05-10T18:15:19.595Z,5.62
2019-05-10T18:16:19.637Z,5.62
2019-05-10T18:17:20.787Z,5.62
2019-05-10T18:18:20.577Z,5.62
2019-05-10T18:19:24.796Z,5.62
2019-05-10T18:20:20.543Z,5.62
2019-05-10T18:21:22.101Z,5.62
2019-05-10T18:22:19.570Z,5.62
2019-05-10T18:23:21.134Z,5.62
2019-05-10T18:24:19.515Z,5.62
2019-05-10T18:25:22.085Z,5.62
2019-05-10T18:26:19.524Z,5.62
2019-05-10T18:27:19.477Z,5.62
2019-05-10T18:28:21.616Z,5.62
2019-05-10T18:29:19.455Z,5.62
